createdAt,value
2023-03-15T00:02:10.778Z,1.93
2023-03-15T00:04:39.844Z,0.90
2023-03-15T00:07:07.510Z,1.50
2023-03-15T00:09:35.164Z,1.30
2023-03-15T00:12:03.399Z,0.97
2023-03-15T00:14:31.641Z,1.13
2023-03-15T00:16:59.308Z,1.20
2023-03-15T00:19:27.244Z,0.80
2023-03-15T00:21:56.298Z,0.70
2023-03-15T00:24:25.142Z,1.30
2023-03-15T00:26:52.929Z,0.80
2023-03-15T00:29:20.616Z,0.93
2023-03-15T00:31:48.283Z,0.80
2023-03-15T00:34:15.991Z,0.80
2023-03-15T00:36:43.956Z,1.10
2023-03-15T00:39:15.305Z,0.90
2023-03-15T00:41:46.006Z,0.97
2023-03-15T00:44:13.862Z,1.33
2023-03-15T00:46:41.525Z,0.80
2023-03-15T00:49:09.290Z,0.80
2023-03-15T00:51:37.477Z,1.07
2023-03-15T00:54:05.132Z,1.07
2023-03-15T00:56:34.244Z,0.83
2023-03-15T00:59:01.924Z,1.03
2023-03-15T01:01:31.028Z,1.20
2023-03-15T01:03:58.777Z,1.00
2023-03-15T01:06:29.250Z,1.00
2023-03-15T01:08:57.545Z,0.93
2023-03-15T01:11:30.858Z,1.13
2023-03-15T01:14:00.739Z,1.27
2023-03-15T01:16:29.409Z,1.30
2023-03-15T01:18:57.576Z,1.10
2023-03-15T01:21:25.502Z,1.27
2023-03-15T01:23:53.951Z,1.17
2023-03-15T01:26:21.710Z,1.33
2023-03-15T01:28:49.519Z,1.10
2023-03-15T01:31:22.302Z,1.53
2023-03-15T01:33:50.017Z,1.27
2023-03-15T01:36:18.535Z,1.40
2023-03-15T01:38:46.702Z,1.63
2023-03-15T01:41:15.611Z,0.80
2023-03-15T01:43:47.133Z,1.33
2023-03-15T01:46:27.437Z,1.20
2023-03-15T01:49:00.862Z,1.40
2023-03-15T01:51:35.197Z,1.40
2023-03-15T01:54:07.935Z,1.10
2023-03-15T01:56:39.575Z,1.60
2023-03-15T01:59:12.492Z,1.43
2023-03-15T02:01:45.641Z,1.47
2023-03-15T02:04:18.478Z,1.47
2023-03-15T02:06:47.718Z,1.83
2023-03-15T02:09:19.104Z,1.33
2023-03-15T02:11:47.248Z,1.30
2023-03-15T02:14:16.303Z,1.43
2023-03-15T02:16:45.751Z,1.27
2023-03-15T02:19:25.788Z,1.93
2023-03-15T02:22:03.044Z,1.50
2023-03-15T02:24:40.212Z,1.30
2023-03-15T02:27:08.075Z,1.50
2023-03-15T02:29:37.329Z,1.50
2023-03-15T02:32:07.281Z,1.60
2023-03-15T02:34:34.948Z,1.33
2023-03-15T02:37:02.701Z,1.53
2023-03-15T02:39:30.406Z,1.20
2023-03-15T02:41:59.500Z,1.50
2023-03-15T02:44:30.289Z,1.53
2023-03-15T02:47:04.464Z,1.60
2023-03-15T02:49:36.251Z,1.43
2023-03-15T02:52:04.423Z,1.30
2023-03-15T02:54:34.320Z,1.43
2023-03-15T02:57:02.578Z,1.57
2023-03-15T02:59:30.310Z,1.10
2023-03-15T03:01:59.532Z,1.27
2023-03-15T03:04:27.282Z,1.60
2023-03-15T03:06:55.095Z,1.43
2023-03-15T03:09:23.475Z,1.10
2023-03-15T03:11:51.185Z,1.23
2023-03-15T03:14:18.956Z,1.43
2023-03-15T03:16:46.679Z,1.27
2023-03-15T03:19:15.852Z,1.30
2023-03-15T03:21:44.347Z,1.93
2023-03-15T03:24:16.227Z,1.50
2023-03-15T03:26:46.220Z,1.27
2023-03-15T03:29:16.685Z,1.40
2023-03-15T03:31:45.312Z,1.27
2023-03-15T03:34:15.601Z,1.57
2023-03-15T03:36:45.238Z,1.60
2023-03-15T03:39:13.417Z,1.53
2023-03-15T03:41:41.595Z,1.70
2023-03-15T03:44:09.344Z,1.47
2023-03-15T03:46:37.349Z,1.63
2023-03-15T03:49:05.051Z,1.90
2023-03-15T03:51:34.109Z,2.20
2023-03-15T03:54:03.809Z,2.13
2023-03-15T03:56:31.900Z,1.63
2023-03-15T03:58:59.660Z,1.80
2023-03-15T04:01:27.420Z,1.67
2023-03-15T04:03:55.069Z,2.00
2023-03-15T04:06:23.793Z,1.70
2023-03-15T04:08:51.443Z,1.90
2023-03-15T04:11:20.438Z,1.87
2023-03-15T04:13:48.293Z,1.40
2023-03-15T04:16:16.208Z,1.33
2023-03-15T04:18:43.870Z,2.30
2023-03-15T04:21:11.856Z,1.97
2023-03-15T04:23:40.367Z,1.33
2023-03-15T04:26:08.018Z,2.07
2023-03-15T04:28:38.091Z,1.90
2023-03-15T04:31:10.531Z,1.70
2023-03-15T04:33:38.344Z,1.37
2023-03-15T04:36:06.427Z,1.30
2023-03-15T04:38:35.489Z,1.37
2023-03-15T04:41:10.744Z,1.10
2023-03-15T04:43:40.029Z,1.90
2023-03-15T04:46:08.028Z,1.60
2023-03-15T04:48:35.998Z,1.53
2023-03-15T04:51:03.752Z,1.40
2023-03-15T04:53:31.673Z,1.47
2023-03-15T04:55:59.839Z,2.00
2023-03-15T04:58:27.492Z,1.67
2023-03-15T05:00:56.517Z,2.00
2023-03-15T05:03:24.365Z,1.60
2023-03-15T05:05:52.097Z,2.30
2023-03-15T05:08:19.780Z,2.60
2023-03-15T05:10:47.724Z,2.10
2023-03-15T05:13:15.342Z,2.47
2023-03-15T05:15:43.064Z,2.23
2023-03-15T05:18:12.308Z,3.13
2023-03-15T05:20:39.975Z,1.90
2023-03-15T05:23:07.692Z,2.87
2023-03-15T05:25:37.650Z,2.50
2023-03-15T05:28:06.804Z,2.30
2023-03-15T05:30:34.543Z,2.27
2023-03-15T05:33:04.723Z,2.13
2023-03-15T05:35:33.906Z,2.20
2023-03-15T05:38:01.647Z,2.10
2023-03-15T05:40:30.490Z,2.03
2023-03-15T05:42:58.125Z,2.23
2023-03-15T05:45:25.987Z,2.63
2023-03-15T05:47:53.657Z,2.77
2023-03-15T05:50:21.977Z,3.20
2023-03-15T05:52:53.015Z,2.53
2023-03-15T05:55:20.987Z,2.80
2023-03-15T05:57:48.743Z,2.53
2023-03-15T06:00:17.640Z,2.57
2023-03-15T06:02:47.040Z,3.10
2023-03-15T06:05:14.816Z,2.23
2023-03-15T06:07:42.789Z,2.90
2023-03-15T06:10:14.133Z,2.50
2023-03-15T06:12:41.924Z,3.33
2023-03-15T06:15:10.839Z,3.03
2023-03-15T06:17:40.899Z,3.00
2023-03-15T06:20:09.453Z,3.60
2023-03-15T06:22:37.227Z,3.27
2023-03-15T06:25:05.529Z,2.83
2023-03-15T06:27:34.818Z,3.30
2023-03-15T06:30:02.873Z,3.63
2023-03-15T06:32:30.970Z,3.20
2023-03-15T06:34:58.699Z,3.00
2023-03-15T06:37:35.030Z,3.67
2023-03-15T06:40:06.035Z,2.60
2023-03-15T06:42:35.276Z,3.47
2023-03-15T06:45:03.406Z,3.37
2023-03-15T06:47:31.203Z,3.20
2023-03-15T06:49:58.899Z,3.77
2023-03-15T06:52:26.617Z,3.33
2023-03-15T06:54:54.511Z,3.03
2023-03-15T06:57:22.236Z,3.00
2023-03-15T06:59:51.640Z,3.27
2023-03-15T07:02:20.209Z,3.33
2023-03-15T07:04:49.436Z,3.73
2023-03-15T07:07:17.735Z,3.40
2023-03-15T07:09:45.926Z,3.47
2023-03-15T07:12:14.252Z,3.50
2023-03-15T07:14:41.956Z,3.70
2023-03-15T07:17:11.480Z,4.40
2023-03-15T07:19:46.773Z,4.53
2023-03-15T07:22:22.951Z,4.47
2023-03-15T07:24:51.194Z,4.07
2023-03-15T07:27:19.884Z,4.87
2023-03-15T07:29:48.653Z,5.03
2023-03-15T07:32:17.965Z,5.37
2023-03-15T07:34:45.710Z,4.97
2023-03-15T07:37:13.493Z,5.00
2023-03-15T07:39:41.296Z,5.13
2023-03-15T07:42:09.670Z,5.50
2023-03-15T07:44:37.405Z,5.87
2023-03-15T07:47:05.560Z,5.47
2023-03-15T07:49:35.368Z,6.50
2023-03-15T07:52:03.592Z,6.17
2023-03-15T07:54:31.907Z,6.03
2023-03-15T07:56:59.657Z,5.77
2023-03-15T07:59:27.389Z,5.50
2023-03-15T08:01:55.488Z,5.57
2023-03-15T08:04:23.499Z,5.93
2023-03-15T08:06:52.928Z,5.00
2023-03-15T08:09:20.654Z,5.87
2023-03-15T08:11:48.272Z,5.43
2023-03-15T08:14:16.095Z,5.53
2023-03-15T08:16:43.838Z,9.27
2023-03-15T08:19:11.566Z,6.97
2023-03-15T08:21:39.338Z,6.40
2023-03-15T08:24:09.106Z,8.70
2023-03-15T08:26:36.808Z,6.87
2023-03-15T08:29:05.033Z,6.00
2023-03-15T08:31:32.929Z,4.30
2023-03-15T08:34:00.669Z,5.37
2023-03-15T08:36:28.621Z,4.87
2023-03-15T08:38:56.429Z,4.47
2023-03-15T08:41:25.701Z,4.93
2023-03-15T08:43:53.428Z,5.10
2023-03-15T08:46:22.187Z,4.50
2023-03-15T08:48:50.093Z,4.87
2023-03-15T08:51:17.927Z,5.23
2023-03-15T08:53:45.541Z,5.00
2023-03-15T08:56:13.596Z,5.80
2023-03-15T08:58:42.777Z,4.47
2023-03-15T09:01:12.671Z,4.10
2023-03-15T09:03:42.443Z,3.87
2023-03-15T09:06:10.846Z,3.07
2023-03-15T09:08:38.652Z,2.87
2023-03-15T09:11:06.726Z,2.40
2023-03-15T09:13:34.843Z,2.50
2023-03-15T09:16:04.250Z,2.80
2023-03-15T09:18:34.040Z,2.87
2023-03-15T09:21:01.874Z,3.30
2023-03-15T09:23:29.483Z,2.60
2023-03-15T09:25:57.249Z,3.23
2023-03-15T09:28:26.634Z,2.60
2023-03-15T09:30:54.608Z,2.90
2023-03-15T09:33:23.924Z,3.03
2023-03-15T09:35:52.779Z,2.87
2023-03-15T09:38:22.094Z,2.97
2023-03-15T09:40:49.905Z,3.20
2023-03-15T09:43:46.936Z,3.40
2023-03-15T09:46:27.626Z,4.13
2023-03-15T09:49:04.845Z,3.37
2023-03-15T09:51:40.303Z,3.57
2023-03-15T09:54:13.802Z,3.60
2023-03-15T09:56:47.065Z,3.27
2023-03-15T09:59:17.588Z,3.80
2023-03-15T10:01:46.719Z,3.10
2023-03-15T10:04:26.583Z,3.77
2023-03-15T10:06:56.671Z,3.87
2023-03-15T10:09:26.591Z,3.67
2023-03-15T10:12:03.766Z,3.73
2023-03-15T10:14:49.405Z,3.80
2023-03-15T10:17:23.368Z,4.13
2023-03-15T10:19:54.482Z,3.93
2023-03-15T10:22:29.527Z,3.37
2023-03-15T10:25:03.216Z,3.97
2023-03-15T10:27:35.539Z,4.23
2023-03-15T10:30:14.209Z,4.63
2023-03-15T10:32:45.747Z,4.43
2023-03-15T10:35:18.756Z,4.30
2023-03-15T10:37:46.554Z,3.83
2023-03-15T10:40:16.356Z,4.73
2023-03-15T10:42:45.740Z,4.93
2023-03-15T10:45:20.890Z,4.90
2023-03-15T10:47:57.688Z,3.80
2023-03-15T10:50:31.640Z,3.67
2023-03-15T10:53:02.308Z,4.73
2023-03-15T10:55:33.940Z,4.50
2023-03-15T10:58:19.548Z,4.40
2023-03-15T11:00:51.850Z,4.30
2023-03-15T11:03:22.256Z,4.50
2023-03-15T11:05:53.339Z,4.57
2023-03-15T11:08:23.209Z,4.30
2023-03-15T11:10:57.528Z,4.57
2023-03-15T11:13:27.438Z,3.97
2023-03-15T11:16:01.458Z,4.67
2023-03-15T11:18:32.100Z,4.33
2023-03-15T11:21:05.199Z,4.47
2023-03-15T11:23:36.572Z,3.90
2023-03-15T11:26:04.772Z,3.57
2023-03-15T11:28:37.165Z,3.90
2023-03-15T11:31:06.364Z,3.47
2023-03-15T11:33:42.590Z,4.00
2023-03-15T11:36:16.674Z,3.07
2023-03-15T11:38:46.249Z,2.80
2023-03-15T11:41:24.741Z,3.30
2023-03-15T11:44:04.038Z,3.20
2023-03-15T11:46:35.558Z,3.50
2023-03-15T11:49:11.679Z,3.67
2023-03-15T11:51:41.045Z,3.07
2023-03-15T11:54:14.527Z,3.10
2023-03-15T11:56:57.140Z,3.40
2023-03-15T11:59:32.667Z,3.57
2023-03-15T12:02:07.523Z,3.43
2023-03-15T12:04:45.868Z,4.17
2023-03-15T12:07:36.727Z,3.43
2023-03-15T12:10:31.796Z,3.70
2023-03-15T12:13:06.678Z,3.27
2023-03-15T12:15:46.980Z,2.97
2023-03-15T12:18:20.959Z,3.30
2023-03-15T12:20:58.153Z,3.17
2023-03-15T12:23:42.528Z,3.40
2023-03-15T12:26:17.682Z,3.13
2023-03-15T12:28:53.437Z,3.40
2023-03-15T12:31:21.819Z,3.10
2023-03-15T12:33:51.986Z,2.90
2023-03-15T12:36:28.990Z,3.20
2023-03-15T12:39:04.381Z,2.63
2023-03-15T12:41:38.311Z,2.70
2023-03-15T12:44:28.104Z,2.60
2023-03-15T12:47:00.727Z,2.20
2023-03-15T12:49:35.071Z,2.10
2023-03-15T12:52:05.562Z,1.67
2023-03-15T12:54:43.328Z,1.20
2023-03-15T12:57:13.580Z,1.70
2023-03-15T12:59:51.490Z,1.40
2023-03-15T13:02:41.726Z,1.20
2023-03-15T13:05:18.882Z,1.30
2023-03-15T13:08:09.640Z,1.10
2023-03-15T13:10:48.256Z,1.27
2023-03-15T13:13:31.058Z,1.40
2023-03-15T13:16:09.822Z,1.10
2023-03-15T13:18:48.577Z,1.20
2023-03-15T13:21:21.104Z,1.23
2023-03-15T13:23:52.251Z,1.40
2023-03-15T13:26:36.093Z,1.10
2023-03-15T13:29:14.268Z,2.00
2023-03-15T13:31:42.509Z,2.17
2023-03-15T13:34:18.469Z,2.20
2023-03-15T13:36:48.513Z,2.57
2023-03-15T13:39:20.693Z,2.33
2023-03-15T13:41:50.194Z,2.20
2023-03-15T13:44:20.754Z,1.63
2023-03-15T13:46:50.043Z,1.40
2023-03-15T13:49:19.091Z,1.50
2023-03-15T13:51:48.534Z,1.77
2023-03-15T13:54:19.689Z,1.60
2023-03-15T13:56:58.200Z,1.73
2023-03-15T13:59:32.559Z,1.80
2023-03-15T14:02:03.470Z,1.30
2023-03-15T14:04:37.568Z,1.40
2023-03-15T14:07:19.986Z,1.60
2023-03-15T14:09:47.733Z,1.60
2023-03-15T14:12:23.809Z,1.30
2023-03-15T14:14:53.621Z,1.27
2023-03-15T14:17:27.616Z,1.23
2023-03-15T14:19:57.034Z,1.20
2023-03-15T14:22:31.959Z,1.20
2023-03-15T14:24:59.824Z,1.40
2023-03-15T14:27:30.580Z,1.23
2023-03-15T14:30:00.031Z,1.30
2023-03-15T14:32:30.157Z,2.87
2023-03-15T14:35:02.102Z,1.00
2023-03-15T14:37:33.227Z,1.07
2023-03-15T14:40:21.271Z,0.77
2023-03-15T14:42:51.676Z,1.10
2023-03-15T14:45:22.239Z,0.57
2023-03-15T14:47:57.245Z,0.57
2023-03-15T14:50:27.473Z,0.80
2023-03-15T14:52:55.640Z,1.00
2023-03-15T14:55:38.953Z,0.90
2023-03-15T14:58:13.686Z,0.60
2023-03-15T15:00:42.181Z,0.80
2023-03-15T15:03:18.452Z,1.43
2023-03-15T15:05:47.364Z,1.20
2023-03-15T15:08:17.903Z,1.30
2023-03-15T15:10:48.090Z,0.73
2023-03-15T15:13:20.245Z,0.87
2023-03-15T15:15:55.513Z,1.40
2023-03-15T15:18:25.000Z,0.93
2023-03-15T15:20:55.538Z,1.03
2023-03-15T15:23:25.665Z,0.80
2023-03-15T15:25:56.975Z,1.10
2023-03-15T15:28:35.253Z,1.43
2023-03-15T15:31:05.904Z,1.23
2023-03-15T15:33:34.163Z,1.10
2023-03-15T15:36:02.757Z,1.03
2023-03-15T15:38:34.839Z,1.07
2023-03-15T15:41:02.742Z,1.13
2023-03-15T15:43:33.586Z,1.50
2023-03-15T15:46:01.943Z,1.50
2023-03-15T15:48:29.875Z,1.80
2023-03-15T15:50:57.760Z,1.10
2023-03-15T15:53:25.794Z,0.80
2023-03-15T15:55:53.536Z,1.00
2023-03-15T15:58:22.947Z,1.07
2023-03-15T16:00:52.070Z,0.93
2023-03-15T16:03:19.866Z,0.70
2023-03-15T16:05:47.837Z,0.90
2023-03-15T16:08:22.371Z,1.10
2023-03-15T16:10:50.402Z,1.07
2023-03-15T16:13:18.486Z,1.10
2023-03-15T16:15:46.579Z,0.97
2023-03-15T16:18:15.691Z,1.00
2023-03-15T16:20:44.269Z,1.30
2023-03-15T16:23:19.053Z,1.30
2023-03-15T16:25:48.936Z,1.20
2023-03-15T16:28:16.733Z,1.83
2023-03-15T16:30:46.716Z,1.40
2023-03-15T16:33:18.337Z,1.60
2023-03-15T16:35:47.661Z,1.77
2023-03-15T16:38:17.520Z,1.87
2023-03-15T16:40:46.868Z,1.60
2023-03-15T16:43:15.173Z,1.40
2023-03-15T16:45:42.928Z,1.47
2023-03-15T16:48:12.075Z,1.87
2023-03-15T16:50:42.327Z,1.90
2023-03-15T16:53:16.716Z,1.90
2023-03-15T16:55:44.531Z,1.77
2023-03-15T16:58:20.567Z,2.27
2023-03-15T17:00:48.655Z,2.00
2023-03-15T17:03:17.264Z,1.60
2023-03-15T17:05:48.241Z,1.70
2023-03-15T17:08:19.750Z,1.50
2023-03-15T17:10:47.837Z,2.33
2023-03-15T17:13:18.218Z,2.20
2023-03-15T17:15:46.195Z,1.87
2023-03-15T17:18:17.923Z,1.60
2023-03-15T17:20:49.472Z,1.73
2023-03-15T17:23:17.961Z,1.50
2023-03-15T17:25:45.877Z,2.10
2023-03-15T17:28:13.753Z,2.10
2023-03-15T17:30:42.152Z,2.00
2023-03-15T17:33:10.040Z,2.20
2023-03-15T17:35:41.686Z,2.10
2023-03-15T17:38:18.392Z,3.30
2023-03-15T17:40:46.912Z,2.73
2023-03-15T17:43:17.193Z,2.70
2023-03-15T17:45:45.371Z,2.80
2023-03-15T17:48:13.528Z,3.33
2023-03-15T17:50:44.212Z,3.20
2023-03-15T17:53:17.527Z,3.17
2023-03-15T17:55:46.558Z,3.27
2023-03-15T17:58:20.104Z,3.30
2023-03-15T18:00:49.231Z,3.23
2023-03-15T18:03:18.180Z,3.90
2023-03-15T18:05:48.410Z,4.13
2023-03-15T18:08:22.347Z,4.47
2023-03-15T18:10:52.722Z,4.00
2023-03-15T18:13:23.124Z,4.10
2023-03-15T18:15:58.066Z,4.23
2023-03-15T18:18:25.717Z,4.63
2023-03-15T18:20:53.959Z,4.10
2023-03-15T18:23:23.172Z,4.80
2023-03-15T18:25:50.966Z,4.50
2023-03-15T18:28:18.829Z,4.97
2023-03-15T18:30:46.577Z,8.27
2023-03-15T18:33:15.680Z,11.10
2023-03-15T18:35:43.552Z,12.47
2023-03-15T18:38:11.361Z,9.87
2023-03-15T18:40:40.654Z,10.17
2023-03-15T18:43:08.668Z,9.43
2023-03-15T18:45:37.485Z,10.53
2023-03-15T18:48:05.636Z,10.13
2023-03-15T18:50:34.444Z,6.70
2023-03-15T18:53:04.975Z,6.80
2023-03-15T18:55:33.450Z,6.93
2023-03-15T18:58:02.716Z,6.37
2023-03-15T19:00:35.974Z,6.07
2023-03-15T19:03:05.622Z,6.03
2023-03-15T19:05:36.185Z,5.77
2023-03-15T19:08:04.300Z,6.50
2023-03-15T19:10:32.027Z,7.80
2023-03-15T19:12:59.843Z,8.80
2023-03-15T19:15:29.308Z,7.00
2023-03-15T19:17:57.129Z,6.90
2023-03-15T19:20:24.942Z,7.03
2023-03-15T19:22:53.665Z,7.60
2023-03-15T19:25:22.286Z,7.47
2023-03-15T19:27:49.972Z,8.67
2023-03-15T19:30:20.890Z,8.13
2023-03-15T19:32:50.896Z,8.07
2023-03-15T19:35:19.537Z,7.20
2023-03-15T19:37:49.061Z,7.87
2023-03-15T19:40:18.521Z,8.00
2023-03-15T19:42:46.671Z,8.40
2023-03-15T19:45:15.480Z,7.50
2023-03-15T19:47:43.619Z,8.17
2023-03-15T19:50:15.063Z,6.80
2023-03-15T19:52:46.623Z,7.10
2023-03-15T19:55:15.197Z,7.50
2023-03-15T19:57:43.060Z,7.63
2023-03-15T20:00:16.217Z,8.13
2023-03-15T20:02:44.909Z,8.00
2023-03-15T20:05:15.952Z,9.57
2023-03-15T20:07:44.158Z,9.83
2023-03-15T20:10:13.340Z,10.67
2023-03-15T20:12:42.361Z,7.60
2023-03-15T20:15:11.832Z,6.90
2023-03-15T20:17:39.834Z,6.13
2023-03-15T20:20:10.343Z,9.33
2023-03-15T20:22:41.517Z,9.37
2023-03-15T20:25:10.033Z,7.30
2023-03-15T20:27:38.245Z,8.00
2023-03-15T20:30:06.836Z,7.27
2023-03-15T20:32:35.870Z,7.10
2023-03-15T20:35:08.876Z,7.70
2023-03-15T20:37:40.551Z,6.90
2023-03-15T20:40:10.783Z,6.77
2023-03-15T20:42:38.532Z,7.47
2023-03-15T20:45:07.374Z,7.17
2023-03-15T20:47:35.321Z,7.70
2023-03-15T20:50:03.071Z,7.43
2023-03-15T20:52:32.140Z,7.27
2023-03-15T20:55:01.435Z,8.17
2023-03-15T20:57:29.198Z,7.83
2023-03-15T20:59:57.002Z,7.70
2023-03-15T21:02:24.891Z,7.63
2023-03-15T21:04:52.898Z,7.93
2023-03-15T21:07:20.577Z,7.37
2023-03-15T21:09:48.253Z,8.20
2023-03-15T21:12:17.462Z,8.73
2023-03-15T21:14:45.210Z,7.63
2023-03-15T21:17:14.629Z,7.87
2023-03-15T21:19:42.888Z,9.17
2023-03-15T21:22:10.721Z,11.03
2023-03-15T21:24:52.852Z,15.63
2023-03-15T21:27:22.218Z,12.60
2023-03-15T21:29:49.919Z,10.57
2023-03-15T21:32:17.670Z,8.97
2023-03-15T21:34:45.368Z,9.10
2023-03-15T21:37:13.146Z,9.20
2023-03-15T21:39:42.148Z,9.70
2023-03-15T21:42:09.772Z,11.33
2023-03-15T21:44:38.956Z,10.27
2023-03-15T21:47:06.649Z,10.73
2023-03-15T21:49:34.368Z,10.37
2023-03-15T21:52:02.491Z,9.53
2023-03-15T21:54:30.280Z,9.43
2023-03-15T21:56:58.003Z,11.63
2023-03-15T21:59:27.819Z,12.37
2023-03-15T22:01:58.080Z,11.53
2023-03-15T22:04:25.965Z,10.00
2023-03-15T22:06:53.941Z,9.10
2023-03-15T22:09:23.223Z,9.87
2023-03-15T22:11:51.074Z,8.63
2023-03-15T22:14:19.432Z,7.83
2023-03-15T22:16:47.107Z,8.20
2023-03-15T22:19:16.221Z,11.60
2023-03-15T22:21:44.080Z,9.40
2023-03-15T22:24:12.113Z,9.73
2023-03-15T22:26:41.022Z,10.17
2023-03-15T22:29:08.771Z,8.90
2023-03-15T22:31:38.077Z,8.80
2023-03-15T22:34:06.029Z,8.43
2023-03-15T22:36:35.194Z,7.87
2023-03-15T22:39:04.084Z,7.73
2023-03-15T22:41:32.132Z,7.30
2023-03-15T22:43:59.796Z,7.27
2023-03-15T22:46:27.538Z,7.00
2023-03-15T22:48:55.609Z,6.63
2023-03-15T22:51:23.356Z,6.87
2023-03-15T22:53:52.460Z,7.33
2023-03-15T22:56:20.405Z,7.00
2023-03-15T22:58:48.748Z,5.83
2023-03-15T23:01:16.492Z,6.63
2023-03-15T23:03:44.296Z,6.17
2023-03-15T23:06:12.068Z,6.53
2023-03-15T23:08:39.803Z,7.10
2023-03-15T23:11:08.812Z,6.87
2023-03-15T23:13:36.508Z,7.10
2023-03-15T23:16:04.802Z,7.30
2023-03-15T23:18:34.158Z,7.43
2023-03-15T23:21:06.845Z,8.63
2023-03-15T23:23:34.716Z,6.77
2023-03-15T23:26:03.888Z,6.43
2023-03-15T23:28:33.786Z,7.30
2023-03-15T23:31:02.497Z,7.67
2023-03-15T23:33:30.270Z,7.47
2023-03-15T23:35:58.302Z,6.63
2023-03-15T23:38:26.039Z,7.27
2023-03-15T23:40:57.833Z,7.37
2023-03-15T23:43:25.883Z,6.77
2023-03-15T23:45:57.627Z,7.87
2023-03-15T23:48:25.686Z,8.03
2023-03-15T23:50:54.452Z,7.60
2023-03-15T23:53:22.981Z,7.87
2023-03-15T23:55:50.675Z,8.20
2023-03-15T23:58:18.801Z,7.93
